createdAt,value
2023-04-30T05:11:55.208Z,100267.93
2023-04-30T05:14:52.691Z,100271.23
2023-04-30T05:17:58.197Z,100278.57
2023-04-30T05:21:00.827Z,100280.41
2023-04-30T05:24:13.729Z,100284.64
2023-04-30T05:26:56.595Z,100287.03
2023-04-30T05:29:24.932Z,100292.8
2023-04-30T05:31:54.574Z,100293.89
2023-04-30T05:34:59.209Z,100296.59
2023-04-30T05:40:42.288Z,100301.88
2023-04-30T05:49:52.074Z,100306.49
2023-04-30T06:00:11.833Z,100313.42
2023-04-30T06:41:33.271Z,100350.76
2023-04-30T06:51:06.608Z,100352.89
2023-04-30T07:20:00.677Z,100358.28
2023-04-30T07:43:56.068Z,100379.47
2023-04-30T07:46:49.706Z,100381.48
2023-04-30T07:49:09.292Z,100388.82
2023-04-30T07:51:37.073Z,100390.01
2023-04-30T07:54:29.988Z,100391.45
2023-04-30T07:57:13.669Z,100391.13
2023-04-30T08:15:13.861Z,100396.49
2023-04-30T08:17:53.980Z,100394.91
2023-04-30T08:20:20.962Z,100389.74
2023-04-30T08:22:53.539Z,100402.43
2023-04-30T08:25:42.830Z,100405.36
2023-04-30T08:28:13.810Z,100400.65
2023-04-30T08:34:04.830Z,100399.95
2023-04-30T09:24:41.660Z,100441.17
2023-04-30T09:46:14.703Z,100449.52
2023-04-30T09:59:02.325Z,100457.48
2023-04-30T10:04:42.694Z,100462.36
2023-04-30T10:07:50.962Z,100455.73
2023-04-30T10:10:31.922Z,100457.4
2023-04-30T10:13:18.853Z,100457.8
2023-04-30T10:16:03.888Z,100456.3
2023-04-30T10:18:48.441Z,100460.48
2023-04-30T10:22:05.123Z,100457.29
2023-04-30T10:27:46.564Z,100449.13
2023-04-30T10:30:11.573Z,100444.33
2023-04-30T10:32:50.930Z,100450.09
2023-04-30T10:35:25.569Z,100445.73
2023-04-30T10:38:24.518Z,100444.63
2023-04-30T10:48:06.714Z,100448.98
2023-04-30T10:50:46.470Z,100452.34
2023-04-30T10:53:15.390Z,100455.24
2023-04-30T10:55:44.672Z,100450.45
2023-04-30T10:58:08.138Z,100439.42
2023-04-30T11:00:32.064Z,100448.83
2023-04-30T11:02:52.880Z,100457.24
2023-04-30T11:05:05.880Z,100447.87
2023-04-30T11:07:23.140Z,100446.98
2023-04-30T11:09:43.928Z,100446.49
2023-04-30T11:11:59.721Z,100448.91
2023-04-30T11:14:14.707Z,100453.48
2023-04-30T11:16:32.460Z,100461.29
2023-04-30T11:19:04.119Z,100458.95
2023-04-30T11:21:30.665Z,100452.9
2023-04-30T11:24:19.906Z,100454.98
2023-04-30T11:26:47.203Z,100456.64
2023-04-30T11:29:33.433Z,100457.35
2023-04-30T11:32:32.782Z,100454.98
2023-04-30T11:35:07.417Z,100466.13
2023-04-30T12:08:29.726Z,100487.48
2023-04-30T13:23:28.518Z,100466.7
2023-04-30T13:52:21.701Z,100484.58
2023-04-30T13:54:40.506Z,100481.41
2023-04-30T13:56:54.547Z,100480.06
2023-04-30T15:40:38.200Z,100499.14
2023-04-30T18:02:03.976Z,100580.98
